Time;durP1;ratioP1;P1;durP2;ratioP2;P2;SDS_P1;SDS_P2;PMS_P1;PMS_P2;Temp;Humidity;BMP_temperature;BMP_pressure;BME280_temperature;BME280_humidity;BME280_pressure;Samples;Min_cycle;Max_cycle;Signal;HPM_P1;HPM_P2
2023/03/18 00:01:46;;;;;;;;;;;;;;;17.08;42.47;101370.28;4996320;28;1099;-46
2023/03/18 00:04:11;;;;;;;;;;;;;;;16.06;44.68;101365.38;4997014;28;1187;-42
2023/03/18 00:06:37;;;;;;;;;;;;;;;15.73;45.39;101375.34;4996359;28;847;-42
2023/03/18 00:09:03;;;;;;;;;;;;;;;15.52;45.87;101376.16;4996379;28;1155;-45
2023/03/18 00:11:29;;;;;;;;;;;;;;;15.33;46.63;101370.94;4996317;28;1906;-41
2023/03/18 00:13:54;;;;;;;;;;;;;;;16.50;43.79;101363.69;4996889;28;1119;-43
2023/03/18 00:16:20;;;;;;;;;;;;;;;17.31;41.89;101360.00;4996391;28;1168;-45
2023/03/18 00:18:46;;;;;;;;;;;;;;;16.24;44.31;101360.63;4996420;28;877;-43
2023/03/18 00:21:11;;;;;;;;;;;;;;;15.84;45.18;101370.03;4996308;28;1227;-40
2023/03/18 00:23:37;;;;;;;;;;;;;;;15.58;45.77;101364.16;4996062;28;1029;-46
2023/03/18 00:26:03;;;;;;;;;;;;;;;15.62;45.81;101354.34;4996485;28;1037;-44
2023/03/18 00:28:28;;;;;;;;;;;;;;;17.16;42.34;101360.72;4996392;28;1060;-40
2023/03/18 00:30:55;;;;;;;;;;;;;;;16.61;43.21;101354.44;4996645;28;1963;-44
2023/03/18 00:33:21;;;;;;;;;;;;;;;15.97;44.98;101353.19;5000197;28;1121;-40
2023/03/18 00:35:46;;;;;;;;;;;;;;;15.66;45.57;101352.75;5000058;28;1112;-46
2023/03/18 00:38:19;;;;;;;;;;;;;;;15.48;45.91;101358.53;4999897;28;1113;-47
2023/03/18 00:41:21;;;;;;;;;;;;;;;15.47;46.05;101351.41;4999079;28;1230;-46
2023/03/18 00:43:51;;;;;;;;;;;;;;;17.23;42.02;101344.81;4997804;28;1346;-45
2023/03/18 00:46:23;;;;;;;;;;;;;;;16.31;43.88;101339.31;4999656;28;1156;-45
2023/03/18 00:48:48;;;;;;;;;;;;;;;15.77;45.19;101345.50;4999986;28;1036;-42
2023/03/18 00:51:15;;;;;;;;;;;;;;;15.52;45.93;101349.56;4999654;28;1917;-43
2023/03/18 00:53:43;;;;;;;;;;;;;;;15.30;46.56;101362.38;4998315;28;1346;-44
2023/03/18 00:56:10;;;;;;;;;;;;;;;16.87;42.84;101346.44;4998858;28;1605;-46
2023/03/18 00:58:36;;;;;;;;;;;;;;;16.58;43.34;101335.75;4998317;28;1452;-42
2023/03/18 01:01:02;;;;;;;;;;;;;;;15.94;44.69;101342.75;5000156;28;1148;-44
2023/03/18 01:03:27;;;;;;;;;;;;;;;15.59;45.61;101343.06;4999485;28;1111;-43
2023/03/18 01:05:53;;;;;;;;;;;;;;;15.39;46.16;101350.75;4999498;28;1068;-44
2023/03/18 01:08:20;;;;;;;;;;;;;;;15.90;45.24;101350.63;4998275;28;1222;-43
2023/03/18 01:10:47;;;;;;;;;;;;;;;17.23;42.07;101349.50;5031369;28;1910;-45
2023/03/18 01:13:13;;;;;;;;;;;;;;;16.17;44.15;101344.41;4999266;28;1115;-41
2023/03/18 01:15:39;;;;;;;;;;;;;;;15.69;45.40;101349.50;4998154;28;1210;-41
2023/03/18 01:18:05;;;;;;;;;;;;;;;15.42;46.21;101351.31;4999316;28;1143;-42
2023/03/18 01:20:30;;;;;;;;;;;;;;;15.95;44.92;101341.66;4999596;28;1101;-41
2023/03/18 01:22:57;;;;;;;;;;;;;;;17.16;42.11;101349.72;5014304;28;1236;-44
2023/03/18 01:25:24;;;;;;;;;;;;;;;16.15;44.17;101348.47;4997612;28;1245;-44
2023/03/18 01:27:52;;;;;;;;;;;;;;;15.69;45.52;101355.00;4998253;28;1288;-46
2023/03/18 01:30:18;;;;;;;;;;;;;;;15.43;46.16;101351.09;4997444;28;1065;-46
2023/03/18 01:32:44;;;;;;;;;;;;;;;15.25;46.57;101343.13;4999509;28;1968;-42
2023/03/18 01:35:11;;;;;;;;;;;;;;;16.48;43.75;101338.38;4998915;28;1055;-45
2023/03/18 01:37:40;;;;;;;;;;;;;;;16.95;42.49;101339.69;4997407;28;1377;-43
2023/03/18 01:40:10;;;;;;;;;;;;;;;15.99;44.76;101345.56;4997902;28;1301;-45
2023/03/18 01:42:36;;;;;;;;;;;;;;;15.59;45.62;101346.63;4996435;28;1244;-45
2023/03/18 01:45:09;;;;;;;;;;;;;;;15.37;46.38;101352.88;4997175;28;1454;-45
2023/03/18 01:47:35;;;;;;;;;;;;;;;16.38;43.92;101344.59;4984654;28;1211;-47
2023/03/18 01:50:01;;;;;;;;;;;;;;;16.89;42.70;101347.06;4997811;28;1192;-43
2023/03/18 01:52:29;;;;;;;;;;;;;;;15.96;44.92;101345.22;4981092;28;1993;-44
2023/03/18 01:54:57;;;;;;;;;;;;;;;15.58;45.81;101350.44;5021756;28;890;-44
2023/03/18 01:57:23;;;;;;;;;;;;;;;15.45;46.06;101353.56;4979470;28;1172;-43
2023/03/18 01:59:49;;;;;;;;;;;;;;;17.05;42.53;101348.81;5018150;28;1137;-42
2023/03/18 02:02:15;;;;;;;;;;;;;;;16.42;43.78;101359.47;5030261;28;1180;-41
2023/03/18 02:04:51;;;;;;;;;;;;;;;15.84;44.99;101354.41;4998575;28;1191;-44
2023/03/18 02:07:18;;;;;;;;;;;;;;;15.53;45.89;101362.19;4998089;28;1045;-46
2023/03/18 02:09:44;;;;;;;;;;;;;;;15.46;46.23;101355.22;4997758;28;1241;-43
2023/03/18 02:12:10;;;;;;;;;;;;;;;17.03;42.54;101351.00;4997077;28;1918;-43
2023/03/18 02:14:36;;;;;;;;;;;;;;;16.39;43.79;101357.25;4997116;28;1242;-46
2023/03/18 02:17:05;;;;;;;;;;;;;;;15.80;45.22;101342.28;4980936;28;1232;-42
2023/03/18 02:19:53;;;;;;;;;;;;;;;15.50;45.93;101356.38;5019740;28;1159;-41
2023/03/18 02:22:25;;;;;;;;;;;;;;;16.50;43.71;101352.69;4997450;28;923;-41
2023/03/18 02:25:15;;;;;;;;;;;;;;;16.71;42.93;101342.75;4997142;28;1231;-47
2023/03/18 02:27:46;;;;;;;;;;;;;;;15.85;44.83;101353.34;4997944;28;1128;-44
2023/03/18 02:30:13;;;;;;;;;;;;;;;15.55;45.64;101348.22;5012525;28;1106;-45
2023/03/18 02:32:42;;;;;;;;;;;;;;;15.33;46.18;101350.91;4981314;28;1983;-43
2023/03/18 02:35:09;;;;;;;;;;;;;;;15.79;45.15;101350.75;4996260;28;1266;-45
2023/03/18 02:37:37;;;;;;;;;;;;;;;17.21;41.88;101340.72;4996587;28;1341;-46
2023/03/18 02:40:12;;;;;;;;;;;;;;;16.39;43.53;101344.34;4996725;28;1161;-42
2023/03/18 02:42:38;;;;;;;;;;;;;;;15.76;45.33;101337.53;4996253;28;1223;-43
2023/03/18 02:45:11;;;;;;;;;;;;;;;15.44;45.73;101346.41;4996646;28;1298;-44
2023/03/18 02:47:41;;;;;;;;;;;;;;;15.25;46.62;101343.97;4999235;28;1144;-43
2023/03/18 02:50:07;;;;;;;;;;;;;;;16.70;43.01;101336.41;5029554;28;1112;-41
2023/03/18 02:52:32;;;;;;;;;;;;;;;16.69;42.77;101340.25;5029156;28;1914;-40
2023/03/18 02:54:58;;;;;;;;;;;;;;;15.89;44.93;101345.41;4996500;28;1394;-43
2023/03/18 02:57:25;;;;;;;;;;;;;;;15.55;45.36;101353.72;4995600;28;1240;-43
2023/03/18 02:59:51;;;;;;;;;;;;;;;15.55;45.75;101353.72;4996476;28;1305;-42
2023/03/18 03:02:16;;;;;;;;;;;;;;;17.10;42.12;101351.59;4997352;28;1143;-45
2023/03/18 03:04:42;;;;;;;;;;;;;;;16.32;43.64;101354.69;4997055;28;1091;-43
2023/03/18 03:07:08;;;;;;;;;;;;;;;15.72;45.08;101353.66;4996977;28;1113;-41
2023/03/18 03:09:47;;;;;;;;;;;;;;;15.44;45.94;101360.13;5029265;28;1154;-44
2023/03/18 03:12:13;;;;;;;;;;;;;;;15.71;45.55;101352.84;4995786;28;1967;-45
2023/03/18 03:14:44;;;;;;;;;;;;;;;17.20;41.87;101344.53;4997273;28;1069;-42
2023/03/18 03:17:11;;;;;;;;;;;;;;;16.21;44.20;101355.66;4995928;28;1190;-41
2023/03/18 03:19:37;;;;;;;;;;;;;;;15.73;45.25;101350.66;4996839;28;881;-42
2023/03/18 03:22:02;;;;;;;;;;;;;;;15.47;45.66;101348.66;4996062;28;1293;-42
2023/03/18 03:24:29;;;;;;;;;;;;;;;15.27;46.42;101340.97;4997282;28;1116;-43
2023/03/18 03:26:54;;;;;;;;;;;;;;;16.69;43.04;101342.16;4996780;28;1100;-41
2023/03/18 03:29:20;;;;;;;;;;;;;;;16.56;43.13;101343.41;4996592;28;1127;-42
2023/03/18 03:31:48;;;;;;;;;;;;;;;15.80;44.88;101341.47;4996860;28;1977;-46
2023/03/18 03:34:13;;;;;;;;;;;;;;;15.53;45.54;101343.00;4996706;28;1045;-40
2023/03/18 03:36:40;;;;;;;;;;;;;;;16.28;44.01;101341.75;4997080;28;1145;-44
2023/03/18 03:39:06;;;;;;;;;;;;;;;16.78;42.69;101337.84;4995377;28;1073;-41
2023/03/18 03:41:33;;;;;;;;;;;;;;;15.86;44.94;101334.94;4997039;28;1175;-44
2023/03/18 03:43:59;;;;;;;;;;;;;;;15.54;45.57;101341.91;4996576;28;1152;-42
2023/03/18 03:46:25;;;;;;;;;;;;;;;15.30;46.17;101352.25;4996804;28;1028;-43
2023/03/18 03:48:50;;;;;;;;;;;;;;;16.19;44.14;101341.38;4995206;28;1312;-42
2023/03/18 03:51:16;;;;;;;;;;;;;;;17.13;42.14;101341.19;4996756;28;1910;-43
2023/03/18 03:53:43;;;;;;;;;;;;;;;16.07;44.37;101345.09;4995817;28;1231;-43
2023/03/18 03:56:10;;;;;;;;;;;;;;;15.59;45.52;101341.16;4995205;28;1216;-45
2023/03/18 03:58:36;;;;;;;;;;;;;;;15.43;45.94;101353.81;4994934;28;1054;-44
2023/03/18 04:01:03;;;;;;;;;;;;;;;17.02;42.12;101348.53;4995579;28;1230;-46
2023/03/18 04:03:29;;;;;;;;;;;;;;;16.46;43.39;101351.56;5028437;28;1172;-48
2023/03/18 04:05:55;;;;;;;;;;;;;;;15.78;45.22;101340.84;4995746;28;1033;-47
2023/03/18 04:08:23;;;;;;;;;;;;;;;15.46;45.73;101355.22;4995354;28;1234;-44
2023/03/18 04:10:49;;;;;;;;;;;;;;;15.31;46.14;101348.44;4988525;28;1902;-43
2023/03/18 04:13:15;;;;;;;;;;;;;;;15.17;46.66;101352.59;4989823;28;1072;-44
2023/03/18 04:15:40;;;;;;;;;;;;;;;16.73;43.05;101352.38;4996638;28;1004;-40
2023/03/18 04:18:10;;;;;;;;;;;;;;;16.49;43.35;101353.78;4994972;28;1798;-48
2023/03/18 04:20:37;;;;;;;;;;;;;;;15.70;45.33;101356.66;4995814;28;978;-49
2023/03/18 04:23:08;;;;;;;;;;;;;;;15.42;45.95;101354.06;4995417;28;1236;-49
2023/03/18 04:25:34;;;;;;;;;;;;;;;15.36;46.26;101350.41;4992002;28;1208;-49
2023/03/18 04:28:00;;;;;;;;;;;;;;;16.98;42.18;101348.22;4988837;28;1125;-48
2023/03/18 04:30:26;;;;;;;;;;;;;;;16.56;43.23;101352.50;4991727;28;1305;-48
2023/03/18 04:33:14;;;;;;;;;;;;;;;15.72;44.99;101362.72;4991061;28;2166;-49
2023/03/18 04:35:42;;;;;;;;;;;;;;;15.47;45.71;101360.44;4995496;28;1248;-48
2023/03/18 04:38:09;;;;;;;;;;;;;;;15.76;45.36;101348.50;4995160;28;1176;-49
2023/03/18 04:40:34;;;;;;;;;;;;;;;17.21;41.93;101352.53;4995250;28;1119;-49
2023/03/18 04:43:00;;;;;;;;;;;;;;;16.31;43.73;101347.53;5027728;28;1188;-46
2023/03/18 04:45:28;;;;;;;;;;;;;;;15.74;45.12;101346.03;4995209;28;1393;-47
2023/03/18 04:47:56;;;;;;;;;;;;;;;15.50;45.88;101353.63;4994897;28;1216;-47
2023/03/18 04:50:23;;;;;;;;;;;;;;;15.37;45.86;101352.88;4995036;28;1166;-44
2023/03/18 04:52:49;;;;;;;;;;;;;;;16.97;42.21;101348.47;4994270;28;1977;-42
2023/03/18 04:55:20;;;;;;;;;;;;;;;16.62;43.03;101339.66;4994872;28;1171;-48
2023/03/18 04:57:47;;;;;;;;;;;;;;;15.85;44.76;101353.34;4990062;28;1535;-44
2023/03/18 05:00:16;;;;;;;;;;;;;;;15.53;45.34;101353.16;4989463;28;1434;-44
2023/03/18 05:02:44;;;;;;;;;;;;;;;15.35;45.99;101366.03;5001311;28;1366;-46
2023/03/18 05:05:10;;;;;;;;;;;;;;;16.66;43.11;101361.91;4987841;28;1445;-45
2023/03/18 05:07:41;;;;;;;;;;;;;;;16.86;42.49;101364.03;4994107;28;1508;-41
2023/03/18 05:10:11;;;;;;;;;;;;;;;15.91;44.53;101362.44;4993444;28;1217;-43
2023/03/18 05:12:37;;;;;;;;;;;;;;;15.54;45.25;101369.34;5027429;28;2017;-42
2023/03/18 05:15:03;;;;;;;;;;;;;;;15.33;46.02;101375.56;4994913;28;1222;-45
2023/03/18 05:17:29;;;;;;;;;;;;;;;15.19;46.33;101373.19;5028755;28;2002;-43
2023/03/18 05:19:58;;;;;;;;;;;;;;;16.75;42.92;101376.84;4998100;28;1115;-44
2023/03/18 05:22:25;;;;;;;;;;;;;;;16.45;43.15;101377.34;4997371;28;1294;-47
2023/03/18 05:24:58;;;;;;;;;;;;;;;15.73;44.86;101374.53;5024779;28;1367;-45
2023/03/18 05:27:27;;;;;;;;;;;;;;;15.40;45.68;101368.84;5011097;28;1307;-44
2023/03/18 05:30:09;;;;;;;;;;;;;;;16.26;43.94;101369.47;5014796;28;1354;-45
2023/03/18 05:32:43;;;;;;;;;;;;;;;17.29;41.53;101362.19;4995738;28;1898;-43
2023/03/18 05:35:10;;;;;;;;;;;;;;;16.16;44.13;101370.16;4992939;28;1236;-44
2023/03/18 05:37:44;;;;;;;;;;;;;;;15.67;45.14;101372.78;5018435;28;1151;-46
2023/03/18 05:40:11;;;;;;;;;;;;;;;15.43;45.82;101369.41;4997667;28;1123;-48
2023/03/18 05:42:39;;;;;;;;;;;;;;;15.34;46.16;101369.84;5028504;28;1413;-41
2023/03/18 05:45:06;;;;;;;;;;;;;;;16.96;42.17;101358.66;4997244;28;2262;-44
2023/03/18 05:47:34;;;;;;;;;;;;;;;16.39;43.14;101360.81;5029940;28;1172;-45
2023/03/18 05:50:10;;;;;;;;;;;;;;;15.80;44.62;101368.88;4997854;28;1255;-44
2023/03/18 05:52:37;;;;;;;;;;;;;;;15.48;45.64;101369.50;5030100;28;1913;-45
2023/03/18 05:55:07;;;;;;;;;;;;;;;15.27;45.92;101362.88;4997254;28;1263;-45
2023/03/18 05:57:37;;;;;;;;;;;;;;;16.74;42.81;101361.44;5013901;28;1175;-43
2023/03/18 06:00:07;;;;;;;;;;;;;;;16.93;42.04;101360.00;4988555;28;1399;-48
2023/03/18 06:02:42;;;;;;;;;;;;;;;16.00;43.99;101362.81;4996558;28;1302;-46
2023/03/18 06:05:09;;;;;;;;;;;;;;;15.68;45.16;101369.81;4998677;28;1103;-48
2023/03/18 06:07:35;;;;;;;;;;;;;;;15.41;45.81;101369.66;5029698;28;1131;-47
2023/03/18 06:10:01;;;;;;;;;;;;;;;15.26;45.90;101369.44;4997051;28;1297;-42
2023/03/18 06:12:27;;;;;;;;;;;;;;;16.62;42.82;101367.09;4999056;28;1963;-48
2023/03/18 06:14:53;;;;;;;;;;;;;;;15.50;45.34;101373.66;4997482;28;1405;-47
2023/03/18 06:17:20;;;;;;;;;;;;;;;15.07;46.11;101380.66;5022748;28;1360;-48
2023/03/18 06:19:47;;;;;;;;;;;;;;;16.25;43.24;101363.13;4998249;28;1032;-45
2023/03/18 06:22:14;;;;;;;;;;;;;;;15.53;45.33;101378.63;4997880;28;1093;-47
2023/03/18 06:24:39;;;;;;;;;;;;;;;17.47;41.00;101382.09;4996176;28;1209;-47
2023/03/18 06:27:06;;;;;;;;;;;;;;;16.31;43.49;101380.47;5020910;28;1318;-46
2023/03/18 06:29:32;;;;;;;;;;;;;;;16.70;42.90;101382.25;4993417;28;1220;-45
2023/03/18 06:32:06;;;;;;;;;;;;;;;17.38;41.09;101379.03;4996317;28;1899;-47
2023/03/18 06:34:34;;;;;;;;;;;;;;;16.25;43.44;101381.50;4988749;28;1301;-46
2023/03/18 06:37:00;;;;;;;;;;;;;;;16.58;42.97;101387.94;4996483;28;1278;-47
2023/03/18 06:39:27;;;;;;;;;;;;;;;16.40;43.24;101387.19;4995607;28;1310;-44
2023/03/18 06:41:53;;;;;;;;;;;;;;;15.90;44.38;101396.44;5016339;28;1458;-45
2023/03/18 06:44:30;;;;;;;;;;;;;;;17.28;41.10;101385.28;4994577;28;1163;-47
2023/03/18 06:47:02;;;;;;;;;;;;;;;16.06;43.98;101390.06;4996792;28;1215;-45
2023/03/18 06:49:30;;;;;;;;;;;;;;;17.58;40.93;101398.38;4995603;28;1480;-47
2023/03/18 06:52:05;;;;;;;;;;;;;;;16.73;42.38;101398.22;4994608;28;1913;-47
2023/03/18 06:54:33;;;;;;;;;;;;;;;16.08;44.17;101409.03;4995554;28;1300;-46
2023/03/18 06:57:00;;;;;;;;;;;;;;;17.40;41.22;101394.16;5025449;28;1611;-47
2023/03/18 06:59:26;;;;;;;;;;;;;;;16.31;43.73;101394.19;4994675;28;1170;-50
2023/03/18 07:01:52;;;;;;;;;;;;;;;16.89;42.74;101402.00;4993758;28;1201;-47
2023/03/18 07:04:19;;;;;;;;;;;;;;;16.62;42.79;101400.06;4995899;28;1266;-46
2023/03/18 07:06:45;;;;;;;;;;;;;;;16.17;43.78;101398.44;5012637;28;1268;-45
2023/03/18 07:09:11;;;;;;;;;;;;;;;17.07;42.17;101392.53;4995992;28;1083;-49
2023/03/18 07:11:38;;;;;;;;;;;;;;;16.48;43.29;101394.13;4995898;28;1989;-46
2023/03/18 07:14:09;;;;;;;;;;;;;;;17.37;41.66;101386.44;4996047;28;1513;-48
2023/03/18 07:16:35;;;;;;;;;;;;;;;17.98;40.13;101387.94;4995502;28;1193;-49
2023/03/18 07:19:03;;;;;;;;;;;;;;;16.63;42.87;101384.41;4996242;28;1409;-45
2023/03/18 07:21:30;;;;;;;;;;;;;;;16.17;43.81;101377.31;4995447;28;1076;-48
2023/03/18 07:23:56;;;;;;;;;;;;;;;16.88;42.37;101384.66;4997099;28;1084;-46
2023/03/18 07:26:23;;;;;;;;;;;;;;;16.15;43.79;101386.88;4996942;28;1092;-44
2023/03/18 07:28:48;;;;;;;;;;;;;;;17.19;41.95;101381.34;4997292;28;1032;-46
2023/03/18 07:31:15;;;;;;;;;;;;;;;16.60;42.92;101385.75;4995535;28;1907;-47
2023/03/18 07:33:41;;;;;;;;;;;;;;;16.17;44.24;101388.28;4996890;28;913;-49
2023/03/18 07:36:07;;;;;;;;;;;;;;;17.45;41.25;101385.94;4995616;28;1155;-47
2023/03/18 07:38:33;;;;;;;;;;;;;;;16.45;43.41;101396.56;4996071;28;1209;-50
2023/03/18 07:40:58;;;;;;;;;;;;;;;16.00;44.16;101393.81;4996442;28;914;-46
2023/03/18 07:43:24;;;;;;;;;;;;;;;15.84;44.58;101400.22;4996677;28;1040;-49
2023/03/18 07:45:49;;;;;;;;;;;;;;;17.60;41.16;101387.16;4996369;28;1474;-49
2023/03/18 07:48:14;;;;;;;;;;;;;;;16.32;43.44;101393.13;4997029;28;1105;-42
2023/03/18 07:50:40;;;;;;;;;;;;;;;15.92;44.38;101402.47;4996648;28;1906;-44
2023/03/18 07:53:06;;;;;;;;;;;;;;;17.44;41.53;101402.69;4996426;28;1060;-44
2023/03/18 07:55:31;;;;;;;;;;;;;;;16.31;43.80;101394.19;4990162;28;1295;-44
2023/03/18 07:57:57;;;;;;;;;;;;;;;16.51;43.60;101398.25;4992114;28;1075;-45
2023/03/18 08:00:23;;;;;;;;;;;;;;;17.05;41.99;101390.03;4996398;28;1061;-48
2023/03/18 08:02:48;;;;;;;;;;;;;;;16.61;43.58;101390.16;4987310;28;1056;-47
2023/03/18 08:05:14;;;;;;;;;;;;;;;18.44;39.49;101401.03;4996794;28;1051;-48
2023/03/18 08:07:40;;;;;;;;;;;;;;;16.97;42.42;101397.94;4996741;28;1192;-50
2023/03/18 08:10:05;;;;;;;;;;;;;;;16.32;43.68;101395.03;4996365;28;908;-47
2023/03/18 08:12:31;;;;;;;;;;;;;;;17.04;42.33;101404.88;4996180;28;1906;-46
2023/03/18 08:14:58;;;;;;;;;;;;;;;16.67;42.86;101393.78;4996608;28;1128;-46
2023/03/18 08:17:24;;;;;;;;;;;;;;;16.15;43.79;101404.16;4996670;28;1222;-47
2023/03/18 08:19:49;;;;;;;;;;;;;;;17.72;40.83;101398.75;4996374;28;1075;-47
2023/03/18 08:22:15;;;;;;;;;;;;;;;16.60;43.25;101402.22;4996439;28;871;-48
2023/03/18 08:24:41;;;;;;;;;;;;;;;16.16;43.96;101402.25;4996740;28;1077;-46
2023/03/18 08:27:08;;;;;;;;;;;;;;;16.23;44.17;101402.91;4990088;28;1230;-44
2023/03/18 08:29:33;;;;;;;;;;;;;;;17.20;41.81;101400.31;4984745;28;997;-46
2023/03/18 08:31:59;;;;;;;;;;;;;;;16.37;43.76;101400.59;4979639;28;1883;-49
2023/03/18 08:34:25;;;;;;;;;;;;;;;17.40;41.95;101394.16;4995580;28;1296;-47
2023/03/18 08:36:50;;;;;;;;;;;;;;;16.82;42.59;101396.66;4985596;28;1156;-47
2023/03/18 08:39:16;;;;;;;;;;;;;;;16.25;44.01;101393.31;4988402;28;1090;-49
2023/03/18 08:41:42;;;;;;;;;;;;;;;17.62;40.87;101391.28;4990659;28;1097;-44
2023/03/18 08:44:09;;;;;;;;;;;;;;;16.56;43.28;101395.56;4996092;28;1195;-47
2023/03/18 08:46:35;;;;;;;;;;;;;;;16.25;43.60;101395.22;4995933;28;831;-46
2023/03/18 08:49:01;;;;;;;;;;;;;;;17.65;40.99;101400.09;4984447;28;1057;-46
2023/03/18 08:51:27;;;;;;;;;;;;;;;16.39;43.61;101404.72;4997625;28;1968;-45
2023/03/18 08:53:54;;;;;;;;;;;;;;;16.39;43.78;101396.50;5000408;28;1092;-47
2023/03/18 08:56:19;;;;;;;;;;;;;;;16.84;42.88;101402.72;5000027;28;1200;-46
2023/03/18 08:58:45;;;;;;;;;;;;;;;16.10;44.09;101411.50;4999952;28;954;-46
2023/03/18 09:01:10;;;;;;;;;;;;;;;17.37;41.94;101399.34;4986863;28;1168;-45
2023/03/18 09:03:36;;;;;;;;;;;;;;;16.48;43.52;101415.25;5000351;28;1144;-46
2023/03/18 09:06:02;;;;;;;;;;;;;;;17.48;41.79;101400.25;4999821;28;1136;-43
2023/03/18 09:08:29;;;;;;;;;;;;;;;17.79;40.81;101396.63;4999693;28;1115;-45
2023/03/18 09:10:55;;;;;;;;;;;;;;;16.76;42.89;101405.97;4999677;28;1971;-46
2023/03/18 09:13:20;;;;;;;;;;;;;;;16.31;43.86;101405.16;4999586;28;1165;-49
2023/03/18 09:15:46;;;;;;;;;;;;;;;17.18;42.31;101405.28;4999886;28;1148;-45
2023/03/18 09:18:15;;;;;;;;;;;;;;;16.56;43.29;101403.81;4999909;28;1033;-45
2023/03/18 09:20:41;;;;;;;;;;;;;;;16.10;43.98;101393.13;4997707;28;1036;-47
2023/03/18 09:23:06;;;;;;;;;;;;;;;17.33;41.68;101395.47;4999377;28;971;-49
2023/03/18 09:25:32;;;;;;;;;;;;;;;16.39;43.50;101391.00;4993601;28;1316;-49
2023/03/18 09:27:59;;;;;;;;;;;;;;;16.74;43.30;101386.16;4999843;28;1126;-43
2023/03/18 09:30:26;;;;;;;;;;;;;;;16.79;42.74;101383.47;4999605;28;1284;-47
2023/03/18 09:32:52;;;;;;;;;;;;;;;16.17;43.78;101385.56;4990296;28;2005;-46
2023/03/18 09:35:18;;;;;;;;;;;;;;;17.87;40.33;101380.69;4998046;28;1044;-48
2023/03/18 09:37:43;;;;;;;;;;;;;;;16.64;42.96;101384.13;4997372;28;1060;-46
2023/03/18 09:40:21;;;;;;;;;;;;;;;16.20;44.04;101387.78;4990111;28;1113;-48
2023/03/18 09:42:50;;;;;;;;;;;;;;;17.10;42.05;101383.75;5022742;28;1224;-46
2023/03/18 09:45:28;;;;;;;;;;;;;;;16.22;43.84;101388.34;5027809;28;1137;-42
2023/03/18 09:47:54;;;;;;;;;;;;;;;16.90;42.76;101389.88;4984739;28;1643;-42
2023/03/18 09:50:28;;;;;;;;;;;;;;;16.48;43.24;101371.31;4990982;28;1061;-44
2023/03/18 09:52:53;;;;;;;;;;;;;;;16.57;43.49;101389.00;5029733;28;1942;-46
2023/03/18 09:55:22;;;;;;;;;;;;;;;17.75;40.61;101383.66;4999417;28;1165;-49
2023/03/18 09:57:47;;;;;;;;;;;;;;;16.51;43.12;101390.03;5025529;28;1159;-48
2023/03/18 10:00:23;;;;;;;;;;;;;;;16.51;43.48;101388.13;4985221;28;1061;-48
2023/03/18 10:02:57;;;;;;;;;;;;;;;16.91;42.34;101383.31;4997338;28;1196;-45
2023/03/18 10:05:42;;;;;;;;;;;;;;;17.54;41.14;101360.69;4998641;28;1036;-45
2023/03/18 10:08:33;;;;;;;;;;;;;;;18.28;39.55;101375.38;4988040;28;1037;-47
2023/03/18 10:11:03;;;;;;;;;;;;;;;16.83;42.66;101364.53;4996827;28;1981;-43
2023/03/18 10:13:30;;;;;;;;;;;;;;;16.50;43.31;101369.16;5029185;28;1081;-47
2023/03/18 10:15:56;;;;;;;;;;;;;;;16.32;43.20;101371.16;4998725;28;1081;-48
2023/03/18 10:18:26;;;;;;;;;;;;;;;16.88;42.50;101378.31;5029612;28;1103;-46
2023/03/18 10:21:01;;;;;;;;;;;;;;;16.82;42.77;101365.63;4998522;28;1017;-43
2023/03/18 10:23:30;;;;;;;;;;;;;;;17.09;42.12;101368.34;5024662;28;1080;-46
2023/03/18 10:25:58;;;;;;;;;;;;;;;18.39;39.24;101379.81;4990814;28;1510;-45
2023/03/18 10:28:39;;;;;;;;;;;;;;;16.90;42.27;101373.41;4998054;28;1072;-46
2023/03/18 10:31:05;;;;;;;;;;;;;;;16.69;42.99;101375.97;5029610;28;1902;-44
2023/03/18 10:33:40;;;;;;;;;;;;;;;17.10;42.10;101368.09;4998050;28;1250;-46
2023/03/18 10:36:18;;;;;;;;;;;;;;;16.47;43.63;101364.19;4996699;28;1118;-46
2023/03/18 10:38:48;;;;;;;;;;;;;;;17.87;40.29;101364.19;4998342;28;1130;-45
2023/03/18 10:41:16;;;;;;;;;;;;;;;16.71;42.93;101349.03;4997830;28;1162;-44
2023/03/18 10:43:41;;;;;;;;;;;;;;;18.18;40.03;101354.16;4997104;28;1160;-45
2023/03/18 10:46:07;;;;;;;;;;;;;;;17.50;41.24;101345.81;4997469;28;1117;-47
2023/03/18 10:48:37;;;;;;;;;;;;;;;16.76;42.82;101349.09;4998397;28;1153;-41
2023/03/18 10:51:09;;;;;;;;;;;;;;;16.46;43.20;101354.31;5028734;28;1902;-46
2023/03/18 10:54:03;;;;;;;;;;;;;;;17.85;40.64;101338.84;4997492;28;1164;-47
2023/03/18 10:56:29;;;;;;;;;;;;;;;16.66;42.88;101346.28;4984667;28;1145;-48
2023/03/18 10:58:56;;;;;;;;;;;;;;;18.29;39.65;101350.31;4997424;28;1120;-45
2023/03/18 11:01:23;;;;;;;;;;;;;;;17.34;41.75;101345.72;4997784;28;1231;-42
2023/03/18 11:03:50;;;;;;;;;;;;;;;16.76;42.80;101335.38;4996768;28;1195;-45
2023/03/18 11:06:37;;;;;;;;;;;;;;;17.43;41.52;101333.16;4997065;28;1433;-44
2023/03/18 11:09:07;;;;;;;;;;;;;;;16.72;43.16;101336.97;4997250;28;1242;-44
2023/03/18 11:11:33;;;;;;;;;;;;;;;17.17;42.42;101334.91;4995569;28;1910;-48
2023/03/18 11:14:00;;;;;;;;;;;;;;;17.38;41.59;101329.53;4986050;28;1058;-47
2023/03/18 11:16:33;;;;;;;;;;;;;;;17.55;41.43;101326.63;4993242;28;890;-44
2023/03/18 11:18:59;;;;;;;;;;;;;;;19.06;38.01;101330.31;4985152;28;1128;-43
2023/03/18 11:21:25;;;;;;;;;;;;;;;17.44;41.40;101334.78;5028982;28;1370;-48
2023/03/18 11:24:06;;;;;;;;;;;;;;;16.91;42.60;101326.47;4996759;28;906;-45
2023/03/18 11:26:31;;;;;;;;;;;;;;;16.62;42.91;101331.41;4997052;28;1128;-44
2023/03/18 11:28:58;;;;;;;;;;;;;;;16.34;43.38;101327.84;5018981;28;1482;-43
2023/03/18 11:31:23;;;;;;;;;;;;;;;17.19;42.08;101312.66;4993335;28;1967;-47
2023/03/18 11:33:49;;;;;;;;;;;;;;;16.50;43.27;101328.81;4996702;28;1060;-47
2023/03/18 11:36:21;;;;;;;;;;;;;;;17.61;41.35;101328.28;4997072;28;977;-43
2023/03/18 11:38:54;;;;;;;;;;;;;;;16.88;42.82;101321.47;4995446;28;1065;-46
2023/03/18 11:41:23;;;;;;;;;;;;;;;16.44;43.68;101327.13;4996895;28;1076;-48
2023/03/18 11:43:58;;;;;;;;;;;;;;;17.35;41.85;101319.91;5020511;28;1353;-43
2023/03/18 11:46:29;;;;;;;;;;;;;;;16.45;43.57;101316.94;4996733;28;1052;-45
2023/03/18 11:48:55;;;;;;;;;;;;;;;16.32;43.64;101323.69;4997043;28;1188;-47
2023/03/18 11:51:44;;;;;;;;;;;;;;;17.09;42.44;101316.97;4989700;28;1973;-45
2023/03/18 11:54:22;;;;;;;;;;;;;;;16.24;44.11;101319.47;4990625;28;1222;-49
2023/03/18 11:56:48;;;;;;;;;;;;;;;17.03;42.69;101326.28;4996439;28;1099;-43
2023/03/18 11:59:28;;;;;;;;;;;;;;;16.66;42.99;101321.56;5027454;28;1127;-46
2023/03/18 12:02:13;;;;;;;;;;;;;;;18.01;40.67;101321.34;4996421;28;1061;-47
2023/03/18 12:04:53;;;;;;;;;;;;;;;18.05;40.17;101316.13;4984506;28;1048;-47
2023/03/18 12:07:22;;;;;;;;;;;;;;;16.97;42.50;101321.84;4996704;28;1080;-44
2023/03/18 12:09:59;;;;;;;;;;;;;;;16.65;43.17;101325.38;4996677;28;1064;-48
2023/03/18 12:12:42;;;;;;;;;;;;;;;17.27;41.72;101312.16;4996013;28;1906;-46
2023/03/18 12:15:14;;;;;;;;;;;;;;;16.55;43.35;101306.06;4996303;28;1099;-48
2023/03/18 12:17:58;;;;;;;;;;;;;;;16.85;43.04;101310.19;5016187;28;1073;-44
2023/03/18 12:20:39;;;;;;;;;;;;;;;16.82;42.84;101308.78;4995945;28;1080;-47
2023/03/18 12:23:13;;;;;;;;;;;;;;;16.76;43.40;101307.09;4996337;28;1140;-49
2023/03/18 12:25:51;;;;;;;;;;;;;;;17.68;41.01;101312.38;4995099;28;1232;-48
2023/03/18 12:28:16;;;;;;;;;;;;;;;16.63;43.41;101313.00;4999299;28;1085;-47
2023/03/18 12:30:49;;;;;;;;;;;;;;;16.25;43.60;101312.91;5000469;28;1092;-48
2023/03/18 12:33:15;;;;;;;;;;;;;;;17.24;42.17;101307.19;5032130;28;1969;-45
2023/03/18 12:35:44;;;;;;;;;;;;;;;16.66;43.17;101318.81;5000212;28;948;-44
2023/03/18 12:38:24;;;;;;;;;;;;;;;17.64;41.45;101304.94;5000739;28;1095;-47
2023/03/18 12:40:59;;;;;;;;;;;;;;;17.89;40.53;101312.47;5000764;28;1153;-47
2023/03/18 12:43:24;;;;;;;;;;;;;;;16.82;43.04;101313.47;4999994;28;1148;-44
2023/03/18 12:45:52;;;;;;;;;;;;;;;16.52;43.19;101317.56;5000316;28;1241;-45
2023/03/18 12:48:20;;;;;;;;;;;;;;;16.29;43.51;101322.28;5000063;28;1164;-44
2023/03/18 12:50:46;;;;;;;;;;;;;;;17.13;42.19;101325.53;4999842;28;1064;-46
2023/03/18 12:53:22;;;;;;;;;;;;;;;16.47;43.46;101331.25;5000253;28;1910;-45
2023/03/18 12:55:49;;;;;;;;;;;;;;;16.23;43.77;101334.31;4999879;28;1096;-47